sensor_id;sensor_type;location;lat;lon;timestamp;P1;durP1;ratioP1;P2;durP2;ratioP2
819;SDS011;392;48.838;2.322;2022-11-15T00:02:19;6.37;;;5.20;;
819;SDS011;392;48.838;2.322;2022-11-15T00:05:05;5.83;;;5.27;;
819;SDS011;392;48.838;2.322;2022-11-15T00:07:51;5.63;;;5.00;;
819;SDS011;392;48.838;2.322;2022-11-15T00:10:38;5.47;;;4.97;;
819;SDS011;392;48.838;2.322;2022-11-15T00:13:25;5.37;;;4.97;;
819;SDS011;392;48.838;2.322;2022-11-15T00:16:11;4.37;;;3.97;;
819;SDS011;392;48.838;2.322;2022-11-15T00:18:57;5.90;;;4.67;;
819;SDS011;392;48.838;2.322;2022-11-15T00:21:43;4.73;;;4.33;;
819;SDS011;392;48.838;2.322;2022-11-15T00:24:29;4.13;;;3.80;;
819;SDS011;392;48.838;2.322;2022-11-15T00:27:16;4.63;;;4.10;;
819;SDS011;392;48.838;2.322;2022-11-15T00:30:02;5.03;;;3.97;;
819;SDS011;392;48.838;2.322;2022-11-15T00:32:49;6.30;;;5.10;;
819;SDS011;392;48.838;2.322;2022-11-15T00:35:35;4.43;;;4.03;;
819;SDS011;392;48.838;2.322;2022-11-15T00:38:21;4.57;;;3.80;;
819;SDS011;392;48.838;2.322;2022-11-15T00:41:07;6.20;;;3.80;;
819;SDS011;392;48.838;2.322;2022-11-15T00:43:55;4.60;;;4.20;;
819;SDS011;392;48.838;2.322;2022-11-15T00:46:40;5.40;;;4.07;;
819;SDS011;392;48.838;2.322;2022-11-15T00:49:26;6.10;;;4.30;;
819;SDS011;392;48.838;2.322;2022-11-15T00:52:12;3.90;;;3.30;;
819;SDS011;392;48.838;2.322;2022-11-15T00:54:58;4.40;;;3.60;;
819;SDS011;392;48.838;2.322;2022-11-15T00:57:44;4.20;;;3.80;;
819;SDS011;392;48.838;2.322;2022-11-15T01:00:32;5.63;;;4.60;;
819;SDS011;392;48.838;2.322;2022-11-15T01:03:18;4.57;;;4.20;;
819;SDS011;392;48.838;2.322;2022-11-15T01:06:05;7.63;;;4.60;;
819;SDS011;392;48.838;2.322;2022-11-15T01:08:52;5.57;;;4.33;;
819;SDS011;392;48.838;2.322;2022-11-15T01:11:38;5.57;;;4.37;;
819;SDS011;392;48.838;2.322;2022-11-15T01:14:24;5.13;;;3.77;;
819;SDS011;392;48.838;2.322;2022-11-15T01:17:11;5.87;;;4.40;;
819;SDS011;392;48.838;2.322;2022-11-15T01:19:57;6.10;;;4.33;;
819;SDS011;392;48.838;2.322;2022-11-15T01:22:43;6.10;;;4.87;;
819;SDS011;392;48.838;2.322;2022-11-15T01:25:29;4.70;;;4.30;;
819;SDS011;392;48.838;2.322;2022-11-15T01:28:16;8.73;;;5.40;;
819;SDS011;392;48.838;2.322;2022-11-15T01:31:03;5.80;;;4.20;;
819;SDS011;392;48.838;2.322;2022-11-15T01:33:53;4.10;;;3.80;;
819;SDS011;392;48.838;2.322;2022-11-15T01:36:39;4.80;;;4.40;;
819;SDS011;392;48.838;2.322;2022-11-15T01:39:25;5.67;;;4.73;;
819;SDS011;392;48.838;2.322;2022-11-15T01:42:11;5.30;;;4.60;;
819;SDS011;392;48.838;2.322;2022-11-15T01:44:57;5.17;;;4.67;;
819;SDS011;392;48.838;2.322;2022-11-15T01:47:44;7.33;;;4.70;;
819;SDS011;392;48.838;2.322;2022-11-15T01:50:35;7.60;;;4.50;;
819;SDS011;392;48.838;2.322;2022-11-15T01:53:21;5.47;;;4.47;;
819;SDS011;392;48.838;2.322;2022-11-15T01:56:10;4.77;;;4.30;;
819;SDS011;392;48.838;2.322;2022-11-15T01:59:00;8.33;;;4.90;;
819;SDS011;392;48.838;2.322;2022-11-15T02:01:49;6.30;;;4.43;;
819;SDS011;392;48.838;2.322;2022-11-15T02:04:36;4.20;;;3.77;;
819;SDS011;392;48.838;2.322;2022-11-15T02:07:27;5.40;;;3.90;;
819;SDS011;392;48.838;2.322;2022-11-15T02:10:17;5.13;;;4.73;;
819;SDS011;392;48.838;2.322;2022-11-15T02:13:05;6.33;;;4.33;;
819;SDS011;392;48.838;2.322;2022-11-15T02:15:52;5.07;;;4.20;;
819;SDS011;392;48.838;2.322;2022-11-15T02:18:50;5.00;;;4.20;;
819;SDS011;392;48.838;2.322;2022-11-15T02:21:43;5.33;;;4.87;;
819;SDS011;392;48.838;2.322;2022-11-15T02:24:50;4.00;;;3.70;;
819;SDS011;392;48.838;2.322;2022-11-15T02:28:16;5.00;;;4.50;;
819;SDS011;392;48.838;2.322;2022-11-15T02:31:32;4.63;;;4.20;;
819;SDS011;392;48.838;2.322;2022-11-15T02:34:26;5.23;;;4.20;;
819;SDS011;392;48.838;2.322;2022-11-15T02:37:21;5.57;;;4.50;;
819;SDS011;392;48.838;2.322;2022-11-15T02:40:27;6.43;;;4.60;;
819;SDS011;392;48.838;2.322;2022-11-15T02:43:25;6.10;;;4.47;;
819;SDS011;392;48.838;2.322;2022-11-15T02:46:38;4.83;;;4.10;;
819;SDS011;392;48.838;2.322;2022-11-15T02:49:47;6.30;;;4.10;;
819;SDS011;392;48.838;2.322;2022-11-15T02:52:36;4.80;;;4.00;;
819;SDS011;392;48.838;2.322;2022-11-15T02:55:26;5.73;;;3.73;;
819;SDS011;392;48.838;2.322;2022-11-15T02:58:27;4.90;;;4.03;;
819;SDS011;392;48.838;2.322;2022-11-15T03:01:36;5.00;;;3.80;;
819;SDS011;392;48.838;2.322;2022-11-15T03:04:39;5.83;;;4.47;;
819;SDS011;392;48.838;2.322;2022-11-15T03:07:29;6.53;;;4.27;;
819;SDS011;392;48.838;2.322;2022-11-15T03:10:23;5.20;;;4.10;;
819;SDS011;392;48.838;2.322;2022-11-15T03:13:19;5.00;;;3.30;;
819;SDS011;392;48.838;2.322;2022-11-15T03:16:14;4.33;;;3.93;;
819;SDS011;392;48.838;2.322;2022-11-15T03:19:08;6.93;;;4.23;;
819;SDS011;392;48.838;2.322;2022-11-15T03:21:59;5.20;;;4.20;;
819;SDS011;392;48.838;2.322;2022-11-15T03:24:51;4.20;;;3.40;;
819;SDS011;392;48.838;2.322;2022-11-15T03:27:42;3.93;;;3.53;;
819;SDS011;392;48.838;2.322;2022-11-15T03:30:32;4.00;;;3.70;;
819;SDS011;392;48.838;2.322;2022-11-15T03:33:21;4.87;;;3.33;;
819;SDS011;392;48.838;2.322;2022-11-15T03:36:08;6.13;;;3.60;;
819;SDS011;392;48.838;2.322;2022-11-15T03:38:56;4.40;;;3.97;;
819;SDS011;392;48.838;2.322;2022-11-15T03:41:48;4.47;;;3.60;;
819;SDS011;392;48.838;2.322;2022-11-15T03:44:42;4.20;;;3.70;;
819;SDS011;392;48.838;2.322;2022-11-15T03:47:36;5.23;;;3.73;;
819;SDS011;392;48.838;2.322;2022-11-15T03:50:27;5.37;;;4.03;;
819;SDS011;392;48.838;2.322;2022-11-15T03:53:16;6.50;;;3.90;;
819;SDS011;392;48.838;2.322;2022-11-15T03:56:02;4.70;;;3.87;;
819;SDS011;392;48.838;2.322;2022-11-15T03:58:50;5.07;;;3.70;;
819;SDS011;392;48.838;2.322;2022-11-15T04:01:35;5.80;;;3.93;;
819;SDS011;392;48.838;2.322;2022-11-15T04:04:21;5.33;;;3.93;;
819;SDS011;392;48.838;2.322;2022-11-15T04:07:07;6.30;;;3.93;;
819;SDS011;392;48.838;2.322;2022-11-15T04:09:55;5.10;;;3.70;;
819;SDS011;392;48.838;2.322;2022-11-15T04:12:47;4.03;;;3.53;;
819;SDS011;392;48.838;2.322;2022-11-15T04:15:33;4.80;;;3.70;;
819;SDS011;392;48.838;2.322;2022-11-15T04:18:19;3.70;;;3.10;;
819;SDS011;392;48.838;2.322;2022-11-15T04:21:06;5.20;;;3.63;;
819;SDS011;392;48.838;2.322;2022-11-15T04:24:10;3.80;;;3.40;;
819;SDS011;392;48.838;2.322;2022-11-15T04:27:00;3.60;;;3.27;;
819;SDS011;392;48.838;2.322;2022-11-15T04:29:46;4.93;;;3.90;;
819;SDS011;392;48.838;2.322;2022-11-15T04:32:32;4.03;;;3.57;;
819;SDS011;392;48.838;2.322;2022-11-15T04:35:18;3.77;;;3.43;;
819;SDS011;392;48.838;2.322;2022-11-15T04:38:04;4.47;;;3.37;;
819;SDS011;392;48.838;2.322;2022-11-15T04:40:52;5.70;;;3.40;;
819;SDS011;392;48.838;2.322;2022-11-15T04:43:40;3.60;;;3.30;;
819;SDS011;392;48.838;2.322;2022-11-15T04:46:26;4.13;;;3.17;;
819;SDS011;392;48.838;2.322;2022-11-15T04:49:12;3.83;;;2.83;;
819;SDS011;392;48.838;2.322;2022-11-15T04:51:57;3.50;;;3.20;;
819;SDS011;392;48.838;2.322;2022-11-15T04:54:43;6.73;;;3.37;;
819;SDS011;392;48.838;2.322;2022-11-15T04:57:29;4.93;;;3.60;;
819;SDS011;392;48.838;2.322;2022-11-15T05:00:17;4.00;;;2.93;;
819;SDS011;392;48.838;2.322;2022-11-15T05:03:03;3.70;;;3.40;;
819;SDS011;392;48.838;2.322;2022-11-15T05:06:07;5.23;;;3.00;;
819;SDS011;392;48.838;2.322;2022-11-15T05:08:52;3.93;;;3.20;;
819;SDS011;392;48.838;2.322;2022-11-15T05:11:38;5.03;;;3.10;;
819;SDS011;392;48.838;2.322;2022-11-15T05:14:24;3.47;;;3.17;;
819;SDS011;392;48.838;2.322;2022-11-15T05:17:12;5.40;;;3.40;;
819;SDS011;392;48.838;2.322;2022-11-15T05:19:57;3.77;;;3.47;;
819;SDS011;392;48.838;2.322;2022-11-15T05:22:43;3.93;;;3.50;;
819;SDS011;392;48.838;2.322;2022-11-15T05:25:29;3.73;;;3.40;;
819;SDS011;392;48.838;2.322;2022-11-15T05:28:15;6.43;;;4.40;;
819;SDS011;392;48.838;2.322;2022-11-15T05:31:01;4.20;;;3.80;;
819;SDS011;392;48.838;2.322;2022-11-15T05:33:49;6.90;;;5.03;;
819;SDS011;392;48.838;2.322;2022-11-15T05:36:36;5.47;;;4.30;;
819;SDS011;392;48.838;2.322;2022-11-15T05:39:24;5.03;;;4.00;;
819;SDS011;392;48.838;2.322;2022-11-15T05:42:11;8.33;;;4.80;;
819;SDS011;392;48.838;2.322;2022-11-15T05:44:59;8.70;;;4.50;;
819;SDS011;392;48.838;2.322;2022-11-15T05:47:48;5.97;;;4.77;;
819;SDS011;392;48.838;2.322;2022-11-15T05:50:36;7.47;;;5.20;;
819;SDS011;392;48.838;2.322;2022-11-15T05:53:26;6.13;;;5.20;;
819;SDS011;392;48.838;2.322;2022-11-15T05:56:12;7.07;;;6.23;;
819;SDS011;392;48.838;2.322;2022-11-15T05:58:59;10.23;;;5.70;;
819;SDS011;392;48.838;2.322;2022-11-15T06:01:46;7.00;;;5.47;;
819;SDS011;392;48.838;2.322;2022-11-15T06:04:32;7.77;;;6.07;;
819;SDS011;392;48.838;2.322;2022-11-15T06:07:19;5.83;;;5.23;;
819;SDS011;392;48.838;2.322;2022-11-15T06:10:05;6.00;;;5.10;;
819;SDS011;392;48.838;2.322;2022-11-15T06:12:56;8.20;;;5.20;;
819;SDS011;392;48.838;2.322;2022-11-15T06:15:43;6.70;;;5.50;;
819;SDS011;392;48.838;2.322;2022-11-15T06:18:31;6.13;;;5.17;;
819;SDS011;392;48.838;2.322;2022-11-15T06:21:18;9.63;;;5.07;;
819;SDS011;392;48.838;2.322;2022-11-15T06:24:05;5.77;;;5.27;;
819;SDS011;392;48.838;2.322;2022-11-15T06:26:52;4.73;;;4.17;;
819;SDS011;392;48.838;2.322;2022-11-15T06:29:37;7.90;;;5.40;;
819;SDS011;392;48.838;2.322;2022-11-15T06:32:24;6.17;;;4.90;;
819;SDS011;392;48.838;2.322;2022-11-15T06:35:09;6.37;;;4.67;;
819;SDS011;392;48.838;2.322;2022-11-15T06:37:56;5.77;;;5.00;;
819;SDS011;392;48.838;2.322;2022-11-15T06:40:49;5.10;;;4.70;;
819;SDS011;392;48.838;2.322;2022-11-15T06:43:35;5.50;;;5.10;;
819;SDS011;392;48.838;2.322;2022-11-15T06:46:22;6.43;;;5.20;;
819;SDS011;392;48.838;2.322;2022-11-15T06:49:08;5.37;;;4.70;;
819;SDS011;392;48.838;2.322;2022-11-15T06:51:54;6.27;;;4.73;;
819;SDS011;392;48.838;2.322;2022-11-15T06:54:40;5.53;;;4.97;;
819;SDS011;392;48.838;2.322;2022-11-15T06:57:27;7.47;;;5.07;;
819;SDS011;392;48.838;2.322;2022-11-15T07:00:13;5.10;;;4.60;;
819;SDS011;392;48.838;2.322;2022-11-15T07:03:01;5.03;;;4.63;;
819;SDS011;392;48.838;2.322;2022-11-15T07:05:50;6.13;;;5.10;;
819;SDS011;392;48.838;2.322;2022-11-15T07:08:38;5.20;;;4.80;;
819;SDS011;392;48.838;2.322;2022-11-15T07:11:25;5.87;;;5.27;;
819;SDS011;392;48.838;2.322;2022-11-15T07:14:12;5.70;;;5.20;;
819;SDS011;392;48.838;2.322;2022-11-15T07:16:58;5.77;;;5.07;;
819;SDS011;392;48.838;2.322;2022-11-15T07:19:44;5.20;;;4.70;;
819;SDS011;392;48.838;2.322;2022-11-15T07:22:30;5.23;;;4.73;;
819;SDS011;392;48.838;2.322;2022-11-15T07:25:16;6.13;;;5.63;;
819;SDS011;392;48.838;2.322;2022-11-15T07:28:02;5.80;;;4.67;;
819;SDS011;392;48.838;2.322;2022-11-15T07:30:50;5.87;;;4.93;;
819;SDS011;392;48.838;2.322;2022-11-15T07:33:35;5.33;;;4.83;;
819;SDS011;392;48.838;2.322;2022-11-15T07:36:21;5.17;;;4.67;;
819;SDS011;392;48.838;2.322;2022-11-15T07:39:07;10.63;;;5.10;;
819;SDS011;392;48.838;2.322;2022-11-15T07:41:53;5.97;;;5.10;;
819;SDS011;392;48.838;2.322;2022-11-15T07:44:59;6.90;;;5.00;;
819;SDS011;392;48.838;2.322;2022-11-15T07:47:46;6.43;;;5.10;;
819;SDS011;392;48.838;2.322;2022-11-15T07:50:32;5.40;;;4.90;;
819;SDS011;392;48.838;2.322;2022-11-15T07:53:18;8.00;;;5.57;;
819;SDS011;392;48.838;2.322;2022-11-15T07:56:05;5.87;;;5.27;;
819;SDS011;392;48.838;2.322;2022-11-15T07:58:51;5.43;;;4.67;;
819;SDS011;392;48.838;2.322;2022-11-15T08:01:37;6.37;;;5.50;;
819;SDS011;392;48.838;2.322;2022-11-15T08:04:24;5.60;;;4.40;;
819;SDS011;392;48.838;2.322;2022-11-15T08:07:10;6.80;;;4.60;;
819;SDS011;392;48.838;2.322;2022-11-15T08:09:56;5.23;;;4.30;;
819;SDS011;392;48.838;2.322;2022-11-15T08:12:41;5.17;;;4.23;;
819;SDS011;392;48.838;2.322;2022-11-15T08:15:28;4.50;;;4.10;;
819;SDS011;392;48.838;2.322;2022-11-15T08:18:15;5.40;;;3.87;;
819;SDS011;392;48.838;2.322;2022-11-15T08:21:03;6.80;;;3.90;;
819;SDS011;392;48.838;2.322;2022-11-15T08:23:49;5.13;;;4.63;;
819;SDS011;392;48.838;2.322;2022-11-15T08:26:36;5.30;;;4.10;;
819;SDS011;392;48.838;2.322;2022-11-15T08:29:22;5.00;;;3.90;;
819;SDS011;392;48.838;2.322;2022-11-15T08:32:08;6.20;;;4.10;;
819;SDS011;392;48.838;2.322;2022-11-15T08:34:54;5.20;;;4.23;;
819;SDS011;392;48.838;2.322;2022-11-15T08:37:41;4.37;;;3.97;;
819;SDS011;392;48.838;2.322;2022-11-15T08:40:28;5.50;;;3.80;;
819;SDS011;392;48.838;2.322;2022-11-15T08:43:14;4.50;;;4.00;;
819;SDS011;392;48.838;2.322;2022-11-15T08:45:59;5.13;;;3.60;;
819;SDS011;392;48.838;2.322;2022-11-15T08:48:45;3.83;;;3.20;;
819;SDS011;392;48.838;2.322;2022-11-15T08:51:31;4.20;;;3.90;;
819;SDS011;392;48.838;2.322;2022-11-15T08:54:19;3.80;;;3.50;;
819;SDS011;392;48.838;2.322;2022-11-15T08:57:04;5.93;;;3.70;;
819;SDS011;392;48.838;2.322;2022-11-15T08:59:53;4.23;;;3.90;;
819;SDS011;392;48.838;2.322;2022-11-15T09:02:39;4.13;;;3.63;;
819;SDS011;392;48.838;2.322;2022-11-15T09:05:25;3.20;;;2.90;;
819;SDS011;392;48.838;2.322;2022-11-15T09:08:11;3.50;;;3.20;;
819;SDS011;392;48.838;2.322;2022-11-15T09:11:02;3.87;;;3.47;;
819;SDS011;392;48.838;2.322;2022-11-15T09:13:49;3.83;;;3.20;;
819;SDS011;392;48.838;2.322;2022-11-15T09:16:35;3.80;;;3.50;;
819;SDS011;392;48.838;2.322;2022-11-15T09:19:21;3.90;;;3.27;;
819;SDS011;392;48.838;2.322;2022-11-15T09:22:06;3.83;;;3.17;;
819;SDS011;392;48.838;2.322;2022-11-15T09:24:53;4.37;;;3.50;;
819;SDS011;392;48.838;2.322;2022-11-15T09:27:40;3.73;;;3.10;;
819;SDS011;392;48.838;2.322;2022-11-15T09:30:25;5.27;;;3.53;;
819;SDS011;392;48.838;2.322;2022-11-15T09:33:11;5.80;;;3.93;;
819;SDS011;392;48.838;2.322;2022-11-15T09:36:00;5.03;;;3.20;;
819;SDS011;392;48.838;2.322;2022-11-15T09:38:46;5.20;;;2.80;;
819;SDS011;392;48.838;2.322;2022-11-15T09:45:18;4.03;;;3.17;;
819;SDS011;392;48.838;2.322;2022-11-15T09:48:23;3.77;;;2.90;;
819;SDS011;392;48.838;2.322;2022-11-15T09:51:30;3.33;;;2.80;;
819;SDS011;392;48.838;2.322;2022-11-15T09:54:02;3.13;;;2.83;;
819;SDS011;392;48.838;2.322;2022-11-15T09:56:37;4.67;;;3.20;;
819;SDS011;392;48.838;2.322;2022-11-15T09:59:13;3.17;;;2.30;;
819;SDS011;392;48.838;2.322;2022-11-15T10:02:01;4.10;;;3.27;;
819;SDS011;392;48.838;2.322;2022-11-15T10:04:39;3.30;;;3.10;;
819;SDS011;392;48.838;2.322;2022-11-15T10:07:10;3.63;;;3.10;;
819;SDS011;392;48.838;2.322;2022-11-15T10:09:45;4.73;;;2.90;;
819;SDS011;392;48.838;2.322;2022-11-15T10:12:17;3.73;;;3.40;;
819;SDS011;392;48.838;2.322;2022-11-15T10:14:45;3.33;;;3.03;;
819;SDS011;392;48.838;2.322;2022-11-15T10:17:24;3.73;;;3.43;;
819;SDS011;392;48.838;2.322;2022-11-15T10:20:12;3.13;;;2.93;;
819;SDS011;392;48.838;2.322;2022-11-15T10:22:45;3.40;;;3.10;;
819;SDS011;392;48.838;2.322;2022-11-15T10:25:17;4.03;;;3.23;;
819;SDS011;392;48.838;2.322;2022-11-15T10:27:51;4.13;;;3.60;;
819;SDS011;392;48.838;2.322;2022-11-15T10:30:23;4.80;;;2.97;;
819;SDS011;392;48.838;2.322;2022-11-15T10:33:00;3.30;;;3.00;;
819;SDS011;392;48.838;2.322;2022-11-15T10:35:46;3.70;;;2.97;;
819;SDS011;392;48.838;2.322;2022-11-15T10:38:13;3.20;;;2.90;;
819;SDS011;392;48.838;2.322;2022-11-15T10:40:41;3.70;;;3.40;;
819;SDS011;392;48.838;2.322;2022-11-15T10:43:14;4.70;;;3.20;;
819;SDS011;392;48.838;2.322;2022-11-15T10:45:43;3.27;;;3.07;;
819;SDS011;392;48.838;2.322;2022-11-15T10:48:21;3.40;;;3.10;;
819;SDS011;392;48.838;2.322;2022-11-15T10:50:52;4.37;;;3.80;;
819;SDS011;392;48.838;2.322;2022-11-15T10:53:26;4.43;;;4.03;;
819;SDS011;392;48.838;2.322;2022-11-15T10:55:58;4.63;;;4.23;;
819;SDS011;392;48.838;2.322;2022-11-15T10:58:32;4.10;;;3.70;;
819;SDS011;392;48.838;2.322;2022-11-15T11:01:17;4.47;;;4.07;;
819;SDS011;392;48.838;2.322;2022-11-15T11:03:59;8.13;;;4.27;;
819;SDS011;392;48.838;2.322;2022-11-15T11:06:29;6.17;;;4.60;;
819;SDS011;392;48.838;2.322;2022-11-15T11:08:58;3.97;;;3.67;;
819;SDS011;392;48.838;2.322;2022-11-15T11:11:43;5.33;;;4.00;;
819;SDS011;392;48.838;2.322;2022-11-15T11:14:19;4.30;;;3.90;;
819;SDS011;392;48.838;2.322;2022-11-15T11:16:51;6.77;;;4.73;;
819;SDS011;392;48.838;2.322;2022-11-15T11:22:23;5.13;;;4.63;;
819;SDS011;392;48.838;2.322;2022-11-15T11:25:05;4.93;;;4.10;;
819;SDS011;392;48.838;2.322;2022-11-15T11:27:47;4.60;;;4.20;;
819;SDS011;392;48.838;2.322;2022-11-15T11:30:35;5.00;;;4.00;;
819;SDS011;392;48.838;2.322;2022-11-15T11:33:17;5.90;;;4.37;;
819;SDS011;392;48.838;2.322;2022-11-15T11:35:56;5.20;;;3.83;;
819;SDS011;392;48.838;2.322;2022-11-15T11:38:47;6.80;;;4.80;;
819;SDS011;392;48.838;2.322;2022-11-15T11:41:30;5.27;;;4.70;;
819;SDS011;392;48.838;2.322;2022-11-15T11:44:23;5.20;;;4.70;;
819;SDS011;392;48.838;2.322;2022-11-15T11:46:59;6.13;;;5.13;;
819;SDS011;392;48.838;2.322;2022-11-15T11:49:32;5.30;;;4.77;;
819;SDS011;392;48.838;2.322;2022-11-15T11:52:10;6.10;;;5.50;;
819;SDS011;392;48.838;2.322;2022-11-15T11:54:44;7.10;;;5.90;;
819;SDS011;392;48.838;2.322;2022-11-15T11:57:23;6.30;;;5.00;;
819;SDS011;392;48.838;2.322;2022-11-15T12:00:01;7.17;;;6.10;;
819;SDS011;392;48.838;2.322;2022-11-15T12:02:40;7.63;;;6.47;;
819;SDS011;392;48.838;2.322;2022-11-15T12:05:13;6.37;;;5.77;;
819;SDS011;392;48.838;2.322;2022-11-15T12:07:48;5.30;;;4.90;;
819;SDS011;392;48.838;2.322;2022-11-15T12:10:20;7.83;;;5.77;;
819;SDS011;392;48.838;2.322;2022-11-15T12:12:53;5.50;;;5.00;;
819;SDS011;392;48.838;2.322;2022-11-15T12:15:26;6.47;;;5.87;;
819;SDS011;392;48.838;2.322;2022-11-15T12:17:58;6.53;;;5.70;;
819;SDS011;392;48.838;2.322;2022-11-15T12:20:30;6.03;;;5.33;;
819;SDS011;392;48.838;2.322;2022-11-15T12:23:05;7.30;;;5.57;;
819;SDS011;392;48.838;2.322;2022-11-15T12:25:41;6.20;;;5.60;;
819;SDS011;392;48.838;2.322;2022-11-15T12:28:14;5.90;;;5.30;;
819;SDS011;392;48.838;2.322;2022-11-15T12:30:49;9.77;;;6.73;;
819;SDS011;392;48.838;2.322;2022-11-15T12:33:31;7.57;;;6.10;;
819;SDS011;392;48.838;2.322;2022-11-15T12:36:04;7.43;;;5.87;;
819;SDS011;392;48.838;2.322;2022-11-15T12:38:56;6.87;;;6.17;;
819;SDS011;392;48.838;2.322;2022-11-15T12:41:26;7.00;;;6.30;;
819;SDS011;392;48.838;2.322;2022-11-15T12:43:55;6.70;;;6.10;;
819;SDS011;392;48.838;2.322;2022-11-15T12:52:12;8.30;;;5.57;;
819;SDS011;392;48.838;2.322;2022-11-15T12:55:00;10.00;;;6.80;;
819;SDS011;392;48.838;2.322;2022-11-15T12:57:56;6.20;;;5.50;;
819;SDS011;392;48.838;2.322;2022-11-15T13:00:54;6.00;;;5.40;;
819;SDS011;392;48.838;2.322;2022-11-15T13:03:25;7.60;;;6.27;;
819;SDS011;392;48.838;2.322;2022-11-15T13:06:02;6.10;;;5.50;;
819;SDS011;392;48.838;2.322;2022-11-15T13:15:34;5.77;;;5.27;;
819;SDS011;392;48.838;2.322;2022-11-15T13:18:26;7.70;;;6.00;;
819;SDS011;392;48.838;2.322;2022-11-15T13:20:58;6.07;;;5.10;;
819;SDS011;392;48.838;2.322;2022-11-15T13:23:27;6.70;;;6.00;;
819;SDS011;392;48.838;2.322;2022-11-15T13:28:42;5.97;;;5.47;;
819;SDS011;392;48.838;2.322;2022-11-15T13:31:21;6.30;;;5.70;;
819;SDS011;392;48.838;2.322;2022-11-15T13:33:53;6.03;;;5.37;;
819;SDS011;392;48.838;2.322;2022-11-15T13:36:25;5.93;;;5.40;;
819;SDS011;392;48.838;2.322;2022-11-15T13:38:58;6.17;;;5.57;;
819;SDS011;392;48.838;2.322;2022-11-15T13:41:29;5.80;;;5.30;;
819;SDS011;392;48.838;2.322;2022-11-15T13:43:59;6.27;;;5.67;;
819;SDS011;392;48.838;2.322;2022-11-15T13:46:29;6.53;;;5.67;;
819;SDS011;392;48.838;2.322;2022-11-15T13:48:59;6.63;;;5.40;;
819;SDS011;392;48.838;2.322;2022-11-15T13:51:32;8.03;;;5.50;;
819;SDS011;392;48.838;2.322;2022-11-15T13:54:07;5.77;;;5.17;;
819;SDS011;392;48.838;2.322;2022-11-15T13:56:45;6.60;;;6.00;;
819;SDS011;392;48.838;2.322;2022-11-15T13:59:22;6.73;;;6.13;;
819;SDS011;392;48.838;2.322;2022-11-15T14:01:52;8.27;;;5.27;;
819;SDS011;392;48.838;2.322;2022-11-15T14:04:21;8.47;;;5.40;;
819;SDS011;392;48.838;2.322;2022-11-15T14:06:52;9.30;;;6.20;;
819;SDS011;392;48.838;2.322;2022-11-15T14:09:34;6.50;;;5.80;;
819;SDS011;392;48.838;2.322;2022-11-15T14:14:54;6.93;;;5.83;;
819;SDS011;392;48.838;2.322;2022-11-15T14:17:33;6.70;;;6.10;;
819;SDS011;392;48.838;2.322;2022-11-15T14:22:53;7.87;;;6.17;;
819;SDS011;392;48.838;2.322;2022-11-15T14:25:23;6.80;;;6.20;;
819;SDS011;392;48.838;2.322;2022-11-15T14:28:14;8.17;;;5.90;;
819;SDS011;392;48.838;2.322;2022-11-15T14:30:56;6.43;;;5.77;;
819;SDS011;392;48.838;2.322;2022-11-15T14:33:27;6.37;;;5.80;;
819;SDS011;392;48.838;2.322;2022-11-15T14:35:57;7.17;;;6.37;;
819;SDS011;392;48.838;2.322;2022-11-15T14:38:30;6.77;;;5.90;;
819;SDS011;392;48.838;2.322;2022-11-15T14:40:59;7.57;;;6.03;;
819;SDS011;392;48.838;2.322;2022-11-15T14:43:26;7.10;;;6.40;;
819;SDS011;392;48.838;2.322;2022-11-15T14:45:54;6.97;;;6.37;;
819;SDS011;392;48.838;2.322;2022-11-15T14:48:21;6.67;;;6.03;;
819;SDS011;392;48.838;2.322;2022-11-15T14:50:48;7.50;;;6.83;;
819;SDS011;392;48.838;2.322;2022-11-15T14:53:16;8.67;;;6.50;;
819;SDS011;392;48.838;2.322;2022-11-15T14:55:45;7.60;;;6.80;;
819;SDS011;392;48.838;2.322;2022-11-15T14:58:13;8.00;;;7.20;;
819;SDS011;392;48.838;2.322;2022-11-15T15:00:41;8.10;;;7.30;;
819;SDS011;392;48.838;2.322;2022-11-15T15:03:09;7.93;;;7.13;;
819;SDS011;392;48.838;2.322;2022-11-15T15:05:37;7.10;;;6.40;;
819;SDS011;392;48.838;2.322;2022-11-15T15:08:07;7.93;;;6.77;;
819;SDS011;392;48.838;2.322;2022-11-15T15:10:35;7.10;;;6.40;;
819;SDS011;392;48.838;2.322;2022-11-15T15:13:06;8.80;;;7.30;;
819;SDS011;392;48.838;2.322;2022-11-15T15:15:44;8.37;;;7.30;;
819;SDS011;392;48.838;2.322;2022-11-15T15:18:12;7.80;;;7.00;;
819;SDS011;392;48.838;2.322;2022-11-15T15:20:40;7.13;;;6.47;;
819;SDS011;392;48.838;2.322;2022-11-15T15:23:14;7.60;;;6.90;;
819;SDS011;392;48.838;2.322;2022-11-15T15:25:43;9.47;;;7.30;;
819;SDS011;392;48.838;2.322;2022-11-15T15:28:13;8.50;;;7.70;;
819;SDS011;392;48.838;2.322;2022-11-15T15:30:41;8.73;;;7.83;;
819;SDS011;392;48.838;2.322;2022-11-15T15:33:09;8.57;;;7.10;;
819;SDS011;392;48.838;2.322;2022-11-15T15:35:37;9.37;;;7.37;;
819;SDS011;392;48.838;2.322;2022-11-15T15:38:04;7.57;;;6.30;;
819;SDS011;392;48.838;2.322;2022-11-15T15:40:32;7.60;;;6.90;;
819;SDS011;392;48.838;2.322;2022-11-15T15:43:00;11.77;;;10.67;;
819;SDS011;392;48.838;2.322;2022-11-15T15:45:27;8.50;;;7.00;;
819;SDS011;392;48.838;2.322;2022-11-15T15:47:56;8.03;;;7.00;;
819;SDS011;392;48.838;2.322;2022-11-15T15:50:24;7.30;;;6.60;;
819;SDS011;392;48.838;2.322;2022-11-15T15:52:54;9.33;;;7.40;;
819;SDS011;392;48.838;2.322;2022-11-15T15:55:23;7.83;;;7.13;;
819;SDS011;392;48.838;2.322;2022-11-15T15:57:52;7.93;;;6.90;;
819;SDS011;392;48.838;2.322;2022-11-15T16:00:20;7.47;;;6.73;;
819;SDS011;392;48.838;2.322;2022-11-15T16:02:50;7.30;;;6.70;;
819;SDS011;392;48.838;2.322;2022-11-15T16:05:19;9.17;;;8.23;;
819;SDS011;392;48.838;2.322;2022-11-15T16:07:47;8.63;;;7.53;;
819;SDS011;392;48.838;2.322;2022-11-15T16:10:16;9.10;;;8.07;;
819;SDS011;392;48.838;2.322;2022-11-15T16:12:50;7.33;;;6.57;;
819;SDS011;392;48.838;2.322;2022-11-15T16:15:18;7.50;;;6.90;;
819;SDS011;392;48.838;2.322;2022-11-15T16:17:48;10.33;;;9.33;;
819;SDS011;392;48.838;2.322;2022-11-15T16:20:26;24.70;;;22.10;;
819;SDS011;392;48.838;2.322;2022-11-15T16:23:02;12.57;;;11.47;;
819;SDS011;392;48.838;2.322;2022-11-15T16:25:32;22.30;;;17.70;;
819;SDS011;392;48.838;2.322;2022-11-15T16:28:04;20.03;;;17.07;;
819;SDS011;392;48.838;2.322;2022-11-15T16:30:34;17.53;;;15.67;;
819;SDS011;392;48.838;2.322;2022-11-15T16:33:03;16.97;;;15.23;;
819;SDS011;392;48.838;2.322;2022-11-15T16:35:32;17.17;;;15.40;;
819;SDS011;392;48.838;2.322;2022-11-15T16:38:01;25.27;;;22.63;;
819;SDS011;392;48.838;2.322;2022-11-15T16:40:29;13.80;;;12.43;;
819;SDS011;392;48.838;2.322;2022-11-15T16:42:58;12.53;;;10.60;;
819;SDS011;392;48.838;2.322;2022-11-15T16:45:27;15.20;;;13.57;;
819;SDS011;392;48.838;2.322;2022-11-15T16:47:56;16.83;;;15.13;;
819;SDS011;392;48.838;2.322;2022-11-15T16:50:25;16.73;;;15.00;;
819;SDS011;392;48.838;2.322;2022-11-15T16:52:55;17.33;;;15.43;;
819;SDS011;392;48.838;2.322;2022-11-15T16:55:25;22.37;;;17.33;;
819;SDS011;392;48.838;2.322;2022-11-15T16:57:54;17.10;;;15.30;;
819;SDS011;392;48.838;2.322;2022-11-15T17:00:23;15.90;;;14.20;;
819;SDS011;392;48.838;2.322;2022-11-15T17:02:52;15.47;;;13.83;;
819;SDS011;392;48.838;2.322;2022-11-15T17:05:21;10.07;;;9.07;;
819;SDS011;392;48.838;2.322;2022-11-15T17:07:51;17.60;;;15.77;;
819;SDS011;392;48.838;2.322;2022-11-15T17:10:21;17.63;;;15.73;;
819;SDS011;392;48.838;2.322;2022-11-15T17:12:50;12.10;;;10.80;;
819;SDS011;392;48.838;2.322;2022-11-15T17:15:18;28.17;;;25.37;;
819;SDS011;392;48.838;2.322;2022-11-15T17:17:50;25.40;;;22.37;;
819;SDS011;392;48.838;2.322;2022-11-15T17:20:18;24.93;;;21.77;;
819;SDS011;392;48.838;2.322;2022-11-15T17:22:48;14.87;;;13.30;;
819;SDS011;392;48.838;2.322;2022-11-15T17:25:17;22.10;;;19.50;;
819;SDS011;392;48.838;2.322;2022-11-15T17:27:46;17.07;;;14.57;;
819;SDS011;392;48.838;2.322;2022-11-15T17:30:13;25.53;;;22.37;;
819;SDS011;392;48.838;2.322;2022-11-15T17:32:43;16.50;;;14.27;;
819;SDS011;392;48.838;2.322;2022-11-15T17:35:11;28.93;;;22.87;;
819;SDS011;392;48.838;2.322;2022-11-15T17:37:39;20.10;;;16.80;;
819;SDS011;392;48.838;2.322;2022-11-15T17:40:06;27.00;;;22.13;;
819;SDS011;392;48.838;2.322;2022-11-15T17:42:35;21.53;;;19.40;;